Gervais, Oregon
Current Conditions -  °F | °C
As of 10:53 AM on Saturday 25 Oct 2014 (Local Time) from KUAO Reporting Station
Light Rain Light Rain  
Wind Chill: 60°   Ceiling: 7500
Heat Index: 60°   Visibility: 10mi
Dew Point: 51°   Wind: 5mph
Humidity: 72%   Direction: NA
Pressure: 29.39"   Gusts: NA
Location:  45.11°N, 122.9°W
Report Text: KUAO 251753Z AUTO VRB04KT 10SM -RA FEW055 BKN075 OVC110 16/11 A2939 RMK AO2 RAB35 SLP952 P0000 60007 T01560106 10156 20089 56040
Loading
Personal Weather Stations






























Interactive Weather Map New forecast layout! Learn more

10-Day Weather Forecast

Advertisements
Track Severe Weather on mobile